createdAt,value
2018-09-12T00:01:46.883Z,73.97
2018-09-12T00:04:13.779Z,75.46
2018-09-12T00:06:40.761Z,73.41
2018-09-12T00:09:09.316Z,74.10
2018-09-12T00:11:36.360Z,77.38
2018-09-12T00:14:03.283Z,77.49
2018-09-12T00:16:30.449Z,76.46
2018-09-12T00:18:57.375Z,75.98
2018-09-12T00:21:24.353Z,74.20
2018-09-12T00:23:51.295Z,75.03
2018-09-12T00:26:18.264Z,74.81
2018-09-12T00:28:45.206Z,74.81
2018-09-12T00:31:12.193Z,74.58
2018-09-12T00:33:39.139Z,73.84
2018-09-12T00:36:06.078Z,74.36
2018-09-12T00:38:33.041Z,74.85
2018-09-12T00:41:00.000Z,75.18
2018-09-12T00:43:26.943Z,75.48
2018-09-12T00:45:53.906Z,75.65
2018-09-12T00:48:20.867Z,74.89
2018-09-12T00:50:47.747Z,75.14
2018-09-12T00:53:14.735Z,77.03
2018-09-12T00:55:41.704Z,78.32
2018-09-12T00:58:08.624Z,77.61
2018-09-12T01:00:36.599Z,76.41
2018-09-12T01:03:03.545Z,77.30
2018-09-12T01:05:30.518Z,77.81
2018-09-12T01:07:57.465Z,78.47
2018-09-12T01:10:24.400Z,77.83
2018-09-12T01:12:51.372Z,77.92
2018-09-12T01:15:18.436Z,74.25
2018-09-12T01:17:45.379Z,73.45
2018-09-12T01:20:12.349Z,76.19
2018-09-12T01:22:39.289Z,75.38
2018-09-12T01:25:06.156Z,76.00
2018-09-12T01:27:33.111Z,75.71
2018-09-12T01:30:00.068Z,76.20
2018-09-12T01:32:27.025Z,76.08
2018-09-12T01:34:53.991Z,76.64
2018-09-12T01:37:20.949Z,76.92
2018-09-12T01:39:47.907Z,77.54
2018-09-12T01:42:14.843Z,77.18
2018-09-12T01:44:41.807Z,78.05
2018-09-12T01:47:08.694Z,77.66
2018-09-12T01:49:35.639Z,77.03
2018-09-12T01:52:02.575Z,76.46
2018-09-12T01:54:29.539Z,77.48
2018-09-12T01:56:56.511Z,78.00
2018-09-12T01:59:23.507Z,77.40
2018-09-12T02:01:50.423Z,77.32
2018-09-12T02:04:17.363Z,74.84
2018-09-12T02:06:44.340Z,78.35
2018-09-12T02:09:13.036Z,78.72
2018-09-12T02:11:40.007Z,78.32
2018-09-12T02:14:06.952Z,78.31
2018-09-12T02:16:33.904Z,77.61
2018-09-12T02:19:00.875Z,76.90
2018-09-12T02:21:27.731Z,76.72
2018-09-12T02:23:54.691Z,77.20
2018-09-12T02:26:21.656Z,76.56
2018-09-12T02:28:48.627Z,76.27
2018-09-12T02:31:15.504Z,77.53
2018-09-12T02:33:42.387Z,75.54
2018-09-12T02:36:15.223Z,78.39
2018-09-12T02:38:42.171Z,79.06
2018-09-12T02:41:09.099Z,79.43
2018-09-12T02:43:35.987Z,78.60
2018-09-12T02:46:02.975Z,78.68
2018-09-12T02:48:29.892Z,78.62
2018-09-12T02:50:58.775Z,78.44
2018-09-12T02:53:25.652Z,78.98
2018-09-12T02:55:52.607Z,80.98
2018-09-12T02:58:19.548Z,81.09
2018-09-12T03:00:46.503Z,80.64
2018-09-12T03:03:13.375Z,79.96
2018-09-12T03:05:40.340Z,81.01
2018-09-12T03:08:07.288Z,81.66
2018-09-12T03:10:34.321Z,81.69
2018-09-12T03:13:01.197Z,80.99
2018-09-12T03:15:28.159Z,80.07
2018-09-12T03:17:56.140Z,80.83
2018-09-12T03:20:23.089Z,76.88
2018-09-12T03:22:50.038Z,76.79
2018-09-12T03:25:17.016Z,79.98
2018-09-12T03:27:43.979Z,78.40
2018-09-12T03:30:10.921Z,78.79
2018-09-12T03:32:37.871Z,79.00
2018-09-12T03:35:05.387Z,79.17
2018-09-12T03:37:32.307Z,78.85
2018-09-12T03:39:59.259Z,78.85
2018-09-12T03:42:26.236Z,78.63
2018-09-12T03:44:53.167Z,79.61
2018-09-12T03:47:20.127Z,78.01
2018-09-12T03:49:47.088Z,78.90
2018-09-12T03:52:14.051Z,78.95
2018-09-12T03:54:41.015Z,79.48
2018-09-12T03:57:08.133Z,78.90
2018-09-12T03:59:35.040Z,78.92
2018-09-12T04:02:01.996Z,79.17
2018-09-12T04:04:28.945Z,78.91
2018-09-12T04:06:55.891Z,78.52
2018-09-12T04:09:22.851Z,78.50
2018-09-12T04:11:49.823Z,78.95
2018-09-12T04:14:16.764Z,79.07
2018-09-12T04:16:43.750Z,78.45
2018-09-12T04:19:10.715Z,77.68
2018-09-12T04:21:37.630Z,78.70
2018-09-12T04:24:04.739Z,78.95
2018-09-12T04:26:31.567Z,78.14
2018-09-12T04:28:58.499Z,79.23
2018-09-12T04:31:25.471Z,80.26
2018-09-12T04:33:52.420Z,80.36
2018-09-12T04:36:19.395Z,80.17
2018-09-12T04:38:46.579Z,80.93
2018-09-12T04:41:13.506Z,80.94
2018-09-12T04:43:40.519Z,81.50
2018-09-12T04:46:07.432Z,81.29
2018-09-12T04:48:34.359Z,80.78
2018-09-12T04:51:01.232Z,80.83
2018-09-12T04:53:28.200Z,77.40
2018-09-12T04:55:55.158Z,79.80
2018-09-12T04:58:22.163Z,80.00
2018-09-12T05:00:49.033Z,79.49
2018-09-12T05:03:15.928Z,81.14
2018-09-12T05:05:42.882Z,79.41
2018-09-12T05:08:09.844Z,79.78
2018-09-12T05:10:36.719Z,78.61
2018-09-12T05:13:03.636Z,80.10
2018-09-12T05:15:30.613Z,77.93
2018-09-12T05:17:57.619Z,80.00
2018-09-12T05:20:24.528Z,79.39
2018-09-12T05:22:51.419Z,79.95
2018-09-12T05:25:18.343Z,79.87
2018-09-12T05:27:45.288Z,80.34
2018-09-12T05:30:12.168Z,79.78
2018-09-12T05:32:39.120Z,78.83
2018-09-12T05:35:06.068Z,77.21
2018-09-12T05:37:33.280Z,78.05
2018-09-12T05:40:00.228Z,77.85
2018-09-12T05:42:27.123Z,77.51
2018-09-12T05:44:54.032Z,78.43
2018-09-12T05:47:20.987Z,78.22
2018-09-12T05:49:47.931Z,78.20
2018-09-12T05:52:14.867Z,76.87
2018-09-12T05:54:41.725Z,76.47
2018-09-12T05:57:08.592Z,75.87
2018-09-12T05:59:35.573Z,75.38
2018-09-12T06:02:02.504Z,75.23
2018-09-12T06:04:29.403Z,75.70
2018-09-12T06:06:56.334Z,75.06
2018-09-12T06:09:23.252Z,74.36
2018-09-12T06:11:50.252Z,74.13
2018-09-12T06:14:18.211Z,72.94
2018-09-12T06:16:45.169Z,72.44
2018-09-12T06:19:12.111Z,73.64
2018-09-12T06:21:39.064Z,72.70
2018-09-12T06:24:06.524Z,72.75
2018-09-12T06:26:33.411Z,73.13
2018-09-12T06:29:00.283Z,72.63
2018-09-12T06:31:27.206Z,73.12
2018-09-12T06:33:54.159Z,73.25
2018-09-12T06:36:21.040Z,72.66
2018-09-12T06:38:47.950Z,71.70
2018-09-12T06:41:14.832Z,72.84
2018-09-12T06:43:41.800Z,72.02
2018-09-12T06:46:08.681Z,71.37
2018-09-12T06:48:35.599Z,70.18
2018-09-12T06:51:02.569Z,70.50
2018-09-12T06:53:29.795Z,70.02
2018-09-12T06:55:56.729Z,70.42
2018-09-12T06:58:23.644Z,70.42
2018-09-12T07:00:51.703Z,68.23
2018-09-12T07:03:18.588Z,68.96
2018-09-12T07:05:45.703Z,68.65
2018-09-12T07:08:12.639Z,67.89
2018-09-12T07:10:39.557Z,67.26
2018-09-12T07:13:06.447Z,66.25
2018-09-12T07:15:33.392Z,66.79
2018-09-12T07:18:00.320Z,66.77
2018-09-12T07:20:27.231Z,67.41
2018-09-12T07:22:54.152Z,66.47
2018-09-12T07:25:21.075Z,65.72
2018-09-12T07:27:47.935Z,65.96
2018-09-12T07:30:14.982Z,64.58
2018-09-12T07:32:42.926Z,64.76
2018-09-12T07:35:09.827Z,64.57
2018-09-12T07:37:37.179Z,64.72
2018-09-12T07:40:06.115Z,64.43
2018-09-12T07:42:32.967Z,64.05
2018-09-12T07:44:59.936Z,64.56
2018-09-12T07:47:26.871Z,63.37
2018-09-12T07:49:53.815Z,63.51
2018-09-12T07:52:20.680Z,62.81
2018-09-12T07:54:47.651Z,61.73
2018-09-12T07:57:14.600Z,60.93
2018-09-12T07:59:41.491Z,60.62
2018-09-12T08:02:08.403Z,58.89
2018-09-12T08:04:35.420Z,58.67
2018-09-12T08:07:02.328Z,59.02
2018-09-12T08:09:29.279Z,57.84
2018-09-12T08:11:58.218Z,57.53
2018-09-12T08:14:25.237Z,56.89
2018-09-12T08:16:52.120Z,56.40
2018-09-12T08:19:19.068Z,55.72
2018-09-12T08:21:46.044Z,55.71
2018-09-12T08:24:12.912Z,55.22
2018-09-12T08:26:40.871Z,54.47
2018-09-12T08:29:07.736Z,54.25
2018-09-12T08:31:34.667Z,52.71
2018-09-12T08:34:01.661Z,52.53
2018-09-12T08:36:28.791Z,52.44
2018-09-12T08:38:55.593Z,52.94
2018-09-12T08:41:22.677Z,52.27
2018-09-12T08:43:50.742Z,51.28
2018-09-12T08:46:17.648Z,52.08
2018-09-12T08:48:44.808Z,50.79
2018-09-12T08:51:11.748Z,50.29
2018-09-12T08:53:38.749Z,50.52
2018-09-12T08:56:05.889Z,48.91
2018-09-12T08:58:32.871Z,48.87
2018-09-12T09:00:59.795Z,48.86
2018-09-12T09:03:26.744Z,47.67
2018-09-12T09:05:53.712Z,48.52
2018-09-12T09:08:20.904Z,48.22
2018-09-12T09:10:47.832Z,47.29
2018-09-12T09:13:14.787Z,47.26
2018-09-12T09:15:41.735Z,46.55
2018-09-12T09:18:08.707Z,47.57
2018-09-12T09:20:35.581Z,45.62
2018-09-12T09:23:02.507Z,47.39
2018-09-12T09:25:29.478Z,46.34
2018-09-12T09:27:56.435Z,45.93
2018-09-12T09:30:30.234Z,44.78
2018-09-12T09:32:57.135Z,43.69
2018-09-12T09:35:24.220Z,45.00
2018-09-12T09:37:51.032Z,43.50
2018-09-12T09:40:17.997Z,44.36
2018-09-12T09:42:45.992Z,44.47
2018-09-12T09:45:12.821Z,43.20
2018-09-12T09:47:39.694Z,42.62
2018-09-12T09:50:06.635Z,42.34
2018-09-12T09:52:33.584Z,42.81
2018-09-12T09:55:00.497Z,40.91
2018-09-12T09:57:27.400Z,42.42
2018-09-12T09:59:54.360Z,41.86
2018-09-12T10:02:27.235Z,41.04
2018-09-12T10:05:00.031Z,40.76
2018-09-12T10:07:32.818Z,40.71
2018-09-12T10:10:02.724Z,41.17
2018-09-12T10:12:31.956Z,41.47
2018-09-12T10:14:58.872Z,41.89
2018-09-12T10:17:25.906Z,41.27
2018-09-12T10:19:54.791Z,39.59
2018-09-12T10:22:21.896Z,40.79
2018-09-12T10:24:48.780Z,40.04
2018-09-12T10:27:19.761Z,38.28
2018-09-12T10:29:46.819Z,38.03
2018-09-12T10:32:13.812Z,40.03
2018-09-12T10:34:42.465Z,39.98
2018-09-12T10:37:09.391Z,39.00
2018-09-12T10:39:36.267Z,40.00
2018-09-12T10:42:03.173Z,38.51
2018-09-12T10:44:30.204Z,39.45
2018-09-12T10:46:57.067Z,37.46
2018-09-12T10:49:24.048Z,37.51
2018-09-12T10:51:50.987Z,38.75
2018-09-12T10:54:17.856Z,40.56
2018-09-12T10:56:44.845Z,38.41
2018-09-12T10:59:12.847Z,37.82
2018-09-12T11:01:39.734Z,36.91
2018-09-12T11:04:06.675Z,37.02
2018-09-12T11:06:33.695Z,38.12
2018-09-12T11:09:00.595Z,38.09
2018-09-12T11:11:28.479Z,37.40
2018-09-12T11:13:56.384Z,37.26
2018-09-12T11:16:23.334Z,37.65
2018-09-12T11:18:50.293Z,37.12
2018-09-12T11:21:17.255Z,37.20
2018-09-12T11:23:44.214Z,35.64
2018-09-12T11:26:11.372Z,35.95
2018-09-12T11:28:38.563Z,35.90
2018-09-12T11:31:05.704Z,34.94
2018-09-12T11:33:32.655Z,35.42
2018-09-12T11:35:59.604Z,35.19
2018-09-12T11:38:26.554Z,34.80
2018-09-12T11:40:53.503Z,35.90
2018-09-12T11:43:20.499Z,34.61
2018-09-12T11:45:48.107Z,35.51
2018-09-12T11:48:15.033Z,35.84
2018-09-12T11:50:41.980Z,35.88
2018-09-12T11:53:08.860Z,34.96
2018-09-12T11:55:35.818Z,34.52
2018-09-12T11:58:02.714Z,35.19
2018-09-12T12:00:29.735Z,34.41
2018-09-12T12:02:56.660Z,34.69
2018-09-12T12:05:23.603Z,35.17
2018-09-12T12:07:50.547Z,35.29
2018-09-12T12:10:17.522Z,34.75
2018-09-12T12:12:44.475Z,34.92
2018-09-12T12:15:11.374Z,34.68
2018-09-12T12:17:38.312Z,35.47
2018-09-12T12:20:05.499Z,33.56
2018-09-12T12:22:32.420Z,34.56
2018-09-12T12:24:59.379Z,35.35
2018-09-12T12:27:26.324Z,34.21
2018-09-12T12:29:53.269Z,34.68
2018-09-12T12:32:20.215Z,35.44
2018-09-12T12:34:47.285Z,35.07
2018-09-12T12:37:14.239Z,34.30
2018-09-12T12:39:41.203Z,35.05
2018-09-12T12:42:08.078Z,33.89
2018-09-12T12:44:35.019Z,35.17
2018-09-12T12:47:01.996Z,33.77
2018-09-12T12:49:28.973Z,34.80
2018-09-12T12:51:55.953Z,34.91
2018-09-12T12:54:22.975Z,34.82
2018-09-12T12:56:49.931Z,34.04
2018-09-12T12:59:16.887Z,35.28
2018-09-12T13:01:43.915Z,34.92
2018-09-12T13:04:10.884Z,35.02
2018-09-12T13:06:37.755Z,35.04
2018-09-12T13:09:06.748Z,33.78
2018-09-12T13:11:33.695Z,34.37
2018-09-12T13:14:00.680Z,33.58
2018-09-12T13:16:27.642Z,34.29
2018-09-12T13:18:54.616Z,34.38
2018-09-12T13:21:21.567Z,33.66
2018-09-12T13:23:48.493Z,34.34
2018-09-12T13:26:15.439Z,33.89
2018-09-12T13:28:42.304Z,34.06
2018-09-12T13:31:09.283Z,34.04
2018-09-12T13:33:36.230Z,34.07
2018-09-12T13:36:03.182Z,32.72
2018-09-12T13:38:30.131Z,34.22
2018-09-12T13:40:57.127Z,32.46
2018-09-12T13:43:24.039Z,32.72
2018-09-12T13:45:51.004Z,32.82
2018-09-12T13:48:17.993Z,32.03
2018-09-12T13:50:44.862Z,32.48
2018-09-12T13:53:11.789Z,32.88
2018-09-12T13:55:38.751Z,33.01
2018-09-12T13:58:05.695Z,33.38
2018-09-12T14:00:32.639Z,33.77
2018-09-12T14:03:01.225Z,33.30
2018-09-12T14:05:28.170Z,33.11
2018-09-12T14:07:56.041Z,33.23
2018-09-12T14:10:22.931Z,32.70
2018-09-12T14:12:49.888Z,33.47
2018-09-12T14:15:16.864Z,33.36
2018-09-12T14:17:43.847Z,33.41
2018-09-12T14:20:10.839Z,32.89
2018-09-12T14:22:37.791Z,33.37
2018-09-12T14:25:04.704Z,32.99
2018-09-12T14:27:31.543Z,33.65
2018-09-12T14:29:58.493Z,33.06
2018-09-12T14:32:25.352Z,34.15
2018-09-12T14:34:52.311Z,34.59
2018-09-12T14:37:19.254Z,33.67
2018-09-12T14:39:46.300Z,35.08
2018-09-12T14:42:13.227Z,34.34
2018-09-12T14:44:40.172Z,33.50
2018-09-12T14:47:07.093Z,33.55
2018-09-12T14:49:34.048Z,34.98
2018-09-12T14:52:01.019Z,33.51
2018-09-12T14:54:27.959Z,33.81
2018-09-12T14:56:54.850Z,33.02
2018-09-12T14:59:21.801Z,33.81
2018-09-12T15:01:48.750Z,33.56
2018-09-12T15:04:15.688Z,32.73
2018-09-12T15:06:42.677Z,32.78
2018-09-12T15:09:11.027Z,32.23
2018-09-12T15:11:38.063Z,32.57
2018-09-12T15:14:05.187Z,32.84
2018-09-12T15:16:32.102Z,32.97
2018-09-12T15:19:00.126Z,34.49
2018-09-12T15:21:27.055Z,33.97
2018-09-12T15:23:54.027Z,33.29
2018-09-12T15:26:20.967Z,34.15
2018-09-12T15:28:47.836Z,33.89
2018-09-12T15:31:14.780Z,33.41
2018-09-12T15:33:41.792Z,33.47
2018-09-12T15:36:08.793Z,33.65
2018-09-12T15:38:35.676Z,33.52
2018-09-12T15:41:02.628Z,32.58
2018-09-12T15:43:29.512Z,32.32
2018-09-12T15:45:56.419Z,32.38
2018-09-12T15:48:23.392Z,34.11
2018-09-12T15:50:50.360Z,35.09
2018-09-12T15:53:17.307Z,34.61
2018-09-12T15:55:44.277Z,35.24
2018-09-12T15:58:11.251Z,35.46
2018-09-12T16:00:38.175Z,35.68
2018-09-12T16:03:05.160Z,35.12
2018-09-12T16:05:32.287Z,34.45
2018-09-12T16:07:59.297Z,33.96
2018-09-12T16:10:26.167Z,35.24
2018-09-12T16:12:53.092Z,34.88
2018-09-12T16:15:20.054Z,35.85
2018-09-12T16:17:46.988Z,35.95
2018-09-12T16:20:13.959Z,36.43
2018-09-12T16:22:40.939Z,35.91
2018-09-12T16:25:07.895Z,36.50
2018-09-12T16:27:34.771Z,36.53
2018-09-12T16:30:01.675Z,37.06
2018-09-12T16:32:28.714Z,36.71
2018-09-12T16:34:55.587Z,37.20
2018-09-12T16:37:22.477Z,37.58
2018-09-12T16:39:49.400Z,35.08
2018-09-12T16:42:16.348Z,36.54
2018-09-12T16:44:43.384Z,36.85
2018-09-12T16:47:10.363Z,38.38
2018-09-12T16:49:38.398Z,37.90
2018-09-12T16:52:05.325Z,38.71
2018-09-12T16:54:32.291Z,38.84
2018-09-12T16:56:59.254Z,39.01
2018-09-12T16:59:26.105Z,38.78
2018-09-12T17:01:52.959Z,39.11
2018-09-12T17:04:19.886Z,40.49
2018-09-12T17:06:46.876Z,40.75
2018-09-12T17:09:13.804Z,40.38
2018-09-12T17:11:40.788Z,40.02
2018-09-12T17:14:08.133Z,40.77
2018-09-12T17:16:35.013Z,40.62
2018-09-12T17:19:02.073Z,41.59
2018-09-12T17:21:29.800Z,41.42
2018-09-12T17:23:56.856Z,42.13
2018-09-12T17:26:23.932Z,43.06
2018-09-12T17:28:50.947Z,44.44
2018-09-12T17:31:17.851Z,45.10
2018-09-12T17:33:44.850Z,45.05
2018-09-12T17:36:11.723Z,44.14
2018-09-12T17:38:38.650Z,44.43
2018-09-12T17:41:05.578Z,43.87
2018-09-12T17:43:32.543Z,44.70
2018-09-12T17:45:59.412Z,44.82
2018-09-12T17:48:26.355Z,45.87
2018-09-12T17:50:53.339Z,45.39
2018-09-12T17:53:20.297Z,45.22
2018-09-12T17:55:47.203Z,45.65
2018-09-12T17:58:14.019Z,47.21
2018-09-12T18:00:41.980Z,47.30
2018-09-12T18:03:08.912Z,45.11
2018-09-12T18:05:35.796Z,46.31
2018-09-12T18:08:03.127Z,46.78
2018-09-12T18:10:30.091Z,48.96
2018-09-12T18:12:57.044Z,47.94
2018-09-12T18:15:23.955Z,48.60
2018-09-12T18:17:50.915Z,48.77
2018-09-12T18:20:17.832Z,47.89
2018-09-12T18:22:44.784Z,46.97
2018-09-12T18:25:11.767Z,47.62
2018-09-12T18:27:38.643Z,47.71
2018-09-12T18:30:05.971Z,48.46
2018-09-12T18:32:32.884Z,48.63
2018-09-12T18:34:59.787Z,48.90
2018-09-12T18:37:26.667Z,50.01
2018-09-12T18:39:53.579Z,50.58
2018-09-12T18:42:20.543Z,51.07
2018-09-12T18:44:47.521Z,52.48
2018-09-12T18:47:14.412Z,53.06
2018-09-12T18:49:41.316Z,53.42
2018-09-12T18:52:08.300Z,54.52
2018-09-12T18:54:35.239Z,53.48
2018-09-12T18:57:02.291Z,53.86
2018-09-12T18:59:29.188Z,54.87
2018-09-12T19:01:56.100Z,56.90
2018-09-12T19:04:23.114Z,56.61
2018-09-12T19:06:51.137Z,55.85
2018-09-12T19:09:18.019Z,54.25
2018-09-12T19:11:45.022Z,53.05
2018-09-12T19:14:11.923Z,54.92
2018-09-12T19:16:38.888Z,57.02
2018-09-12T19:19:05.843Z,55.82
2018-09-12T19:21:32.735Z,57.05
2018-09-12T19:23:59.652Z,56.65
2018-09-12T19:26:26.620Z,55.85
2018-09-12T19:28:53.576Z,56.63
2018-09-12T19:31:20.508Z,57.05
2018-09-12T19:33:47.533Z,57.38
2018-09-12T19:36:14.463Z,58.37
2018-09-12T19:38:41.380Z,58.18
2018-09-12T19:41:08.381Z,59.12
2018-09-12T19:43:35.260Z,58.52
2018-09-12T19:46:02.279Z,58.14
2018-09-12T19:48:29.599Z,57.42
2018-09-12T19:50:56.503Z,56.94
2018-09-12T19:53:23.464Z,58.07
2018-09-12T19:55:50.451Z,58.47
2018-09-12T19:58:17.356Z,57.43
2018-09-12T20:00:44.315Z,57.85
2018-09-12T20:03:11.354Z,58.73
2018-09-12T20:05:38.245Z,58.86
2018-09-12T20:08:05.211Z,58.04
2018-09-12T20:10:32.136Z,58.22
2018-09-12T20:12:59.095Z,57.35
2018-09-12T20:15:25.973Z,56.14
2018-09-12T20:17:52.907Z,54.88
2018-09-12T20:20:19.862Z,54.07
2018-09-12T20:22:46.815Z,55.67
2018-09-12T20:25:13.677Z,54.90
2018-09-12T20:27:40.647Z,54.60
2018-09-12T20:30:07.672Z,54.74
2018-09-12T20:32:34.608Z,54.49
2018-09-12T20:35:01.433Z,54.34
2018-09-12T20:37:28.364Z,54.40
2018-09-12T20:39:55.371Z,54.62
2018-09-12T20:42:22.276Z,56.53
2018-09-12T20:44:49.255Z,56.49
2018-09-12T20:47:16.120Z,56.33
2018-09-12T20:49:43.043Z,57.41
2018-09-12T20:52:10.001Z,58.90
2018-09-12T20:54:36.968Z,59.49
2018-09-12T20:57:04.160Z,58.72
2018-09-12T20:59:31.091Z,57.26
2018-09-12T21:01:58.044Z,57.71
2018-09-12T21:04:25.000Z,58.19
2018-09-12T21:06:51.965Z,57.83
2018-09-12T21:09:18.915Z,58.48
2018-09-12T21:11:45.859Z,57.97
2018-09-12T21:14:12.884Z,60.15
2018-09-12T21:16:39.835Z,56.99
2018-09-12T21:19:07.342Z,56.30
2018-09-12T21:21:34.495Z,56.69
2018-09-12T21:24:01.365Z,57.71
2018-09-12T21:26:28.827Z,56.99
2018-09-12T21:28:56.191Z,57.86
2018-09-12T21:31:23.095Z,56.72
2018-09-12T21:33:50.011Z,57.22
2018-09-12T21:36:16.979Z,56.97
2018-09-12T21:38:43.953Z,56.57
2018-09-12T21:41:10.824Z,56.97
2018-09-12T21:43:37.751Z,57.49
2018-09-12T21:46:04.691Z,56.37
2018-09-12T21:48:31.722Z,56.94
2018-09-12T21:50:58.722Z,56.39
2018-09-12T21:53:25.674Z,57.60
2018-09-12T21:55:52.763Z,57.12
2018-09-12T21:58:19.687Z,57.81
2018-09-12T22:00:46.679Z,56.43
2018-09-12T22:03:13.633Z,56.43
2018-09-12T22:05:40.586Z,57.54
2018-09-12T22:08:07.602Z,56.57
2018-09-12T22:10:34.771Z,56.44
2018-09-12T22:13:01.677Z,56.17
2018-09-12T22:15:28.631Z,55.22
2018-09-12T22:17:55.570Z,55.59
2018-09-12T22:20:22.535Z,56.18
2018-09-12T22:22:49.471Z,56.68
2018-09-12T22:25:16.515Z,56.71
2018-09-12T22:27:43.409Z,56.28
2018-09-12T22:30:10.412Z,56.37
2018-09-12T22:32:37.384Z,57.33
2018-09-12T22:35:04.331Z,57.76
2018-09-12T22:37:31.211Z,58.06
2018-09-12T22:39:58.178Z,57.09
2018-09-12T22:42:25.136Z,58.72
2018-09-12T22:44:52.131Z,58.15
2018-09-12T22:47:20.071Z,58.27
2018-09-12T22:49:47.027Z,59.01
2018-09-12T22:52:14.020Z,59.23
2018-09-12T22:54:40.943Z,58.92
2018-09-12T22:57:07.891Z,59.05
2018-09-12T22:59:34.755Z,60.13
2018-09-12T23:02:01.724Z,60.65
2018-09-12T23:04:28.675Z,60.51
2018-09-12T23:06:55.634Z,59.99
2018-09-12T23:09:22.593Z,61.48
2018-09-12T23:11:49.533Z,61.52
2018-09-12T23:14:16.512Z,62.45
2018-09-12T23:16:43.792Z,62.75
2018-09-12T23:19:11.043Z,61.76
2018-09-12T23:21:37.987Z,62.31
2018-09-12T23:24:05.087Z,63.43
2018-09-12T23:26:32.042Z,62.48
2018-09-12T23:28:58.959Z,62.87
2018-09-12T23:31:25.836Z,63.92
2018-09-12T23:33:52.839Z,64.38
2018-09-12T23:36:19.759Z,64.73
2018-09-12T23:38:46.694Z,65.07
2018-09-12T23:41:13.560Z,65.19
2018-09-12T23:43:40.492Z,65.66
2018-09-12T23:46:07.499Z,65.25
2018-09-12T23:48:34.415Z,66.51
2018-09-12T23:51:01.392Z,66.58
2018-09-12T23:53:28.951Z,66.46
2018-09-12T23:55:55.971Z,66.59
2018-09-12T23:58:22.961Z,67.69
